sensor_id;sensor_type;location;lat;lon;timestamp;pressure;altitude;pressure_sealevel;temperature;humidity
82353;BME280;71954;47.430;18.920;2024-02-23T00:01:09;98510.03;;;11.29;51.79
82353;BME280;71954;47.430;18.920;2024-02-23T00:03:37;98508.38;;;11.28;51.94
82353;BME280;71954;47.430;18.920;2024-02-23T00:06:04;98505.41;;;11.31;51.91
82353;BME280;71954;47.430;18.920;2024-02-23T00:08:31;98502.06;;;11.29;52.03
82353;BME280;71954;47.430;18.920;2024-02-23T00:10:58;98499.94;;;11.32;51.95
82353;BME280;71954;47.430;18.920;2024-02-23T00:13:25;98501.56;;;11.25;52.11
82353;BME280;71954;47.430;18.920;2024-02-23T00:15:52;98500.06;;;11.23;52.44
82353;BME280;71954;47.430;18.920;2024-02-23T00:18:18;98508.88;;;11.23;52.40
82353;BME280;71954;47.430;18.920;2024-02-23T00:20:46;98511.03;;;11.28;52.10
82353;BME280;71954;47.430;18.920;2024-02-23T00:23:13;98502.41;;;11.34;52.01
82353;BME280;71954;47.430;18.920;2024-02-23T00:25:40;98505.41;;;11.31;52.03
82353;BME280;71954;47.430;18.920;2024-02-23T00:28:08;98505.56;;;11.37;52.07
82353;BME280;71954;47.430;18.920;2024-02-23T00:30:34;98502.09;;;11.45;51.80
82353;BME280;71954;47.430;18.920;2024-02-23T00:33:01;98498.94;;;11.50;51.80
82353;BME280;71954;47.430;18.920;2024-02-23T00:35:28;98500.78;;;11.57;51.50
82353;BME280;71954;47.430;18.920;2024-02-23T00:37:54;98491.78;;;11.58;51.48
82353;BME280;71954;47.430;18.920;2024-02-23T00:40:21;98490.63;;;11.61;51.62
82353;BME280;71954;47.430;18.920;2024-02-23T00:42:49;98499.28;;;11.63;51.32
82353;BME280;71954;47.430;18.920;2024-02-23T00:45:16;98496.63;;;11.63;51.61
82353;BME280;71954;47.430;18.920;2024-02-23T00:47:43;98497.13;;;11.66;51.63
82353;BME280;71954;47.430;18.920;2024-02-23T00:50:10;98495.78;;;11.54;52.23
82353;BME280;71954;47.430;18.920;2024-02-23T00:52:37;98490.16;;;11.57;52.32
82353;BME280;71954;47.430;18.920;2024-02-23T00:55:04;98499.13;;;11.56;53.18
82353;BME280;71954;47.430;18.920;2024-02-23T00:57:30;98494.78;;;11.55;53.26
82353;BME280;71954;47.430;18.920;2024-02-23T00:59:57;98482.00;;;11.51;53.83
82353;BME280;71954;47.430;18.920;2024-02-23T01:02:24;98490.47;;;11.46;54.13
82353;BME280;71954;47.430;18.920;2024-02-23T01:05:15;98490.59;;;11.12;55.99
82353;BME280;71954;47.430;18.920;2024-02-23T01:07:42;98496.25;;;11.25;56.42
82353;BME280;71954;47.430;18.920;2024-02-23T01:10:08;98495.91;;;11.28;56.64
82353;BME280;71954;47.430;18.920;2024-02-23T01:12:36;98494.59;;;11.24;57.42
82353;BME280;71954;47.430;18.920;2024-02-23T01:15:03;98495.09;;;11.28;57.39
82353;BME280;71954;47.430;18.920;2024-02-23T01:17:31;98490.28;;;11.31;57.70
82353;BME280;71954;47.430;18.920;2024-02-23T01:19:58;98477.34;;;11.20;58.53
82353;BME280;71954;47.430;18.920;2024-02-23T01:22:25;98480.81;;;11.21;59.19
82353;BME280;71954;47.430;18.920;2024-02-23T01:24:51;98471.69;;;11.23;59.45
82353;BME280;71954;47.430;18.920;2024-02-23T01:27:18;98488.13;;;11.19;59.93
82353;BME280;71954;47.430;18.920;2024-02-23T01:29:44;98486.94;;;11.13;60.74
82353;BME280;71954;47.430;18.920;2024-02-23T01:32:11;98479.13;;;11.12;60.79
82353;BME280;71954;47.430;18.920;2024-02-23T01:34:38;98476.63;;;11.10;61.24
82353;BME280;71954;47.430;18.920;2024-02-23T01:37:04;98471.16;;;11.03;61.49
82353;BME280;71954;47.430;18.920;2024-02-23T01:39:31;98464.69;;;11.06;62.01
82353;BME280;71954;47.430;18.920;2024-02-23T01:41:58;98462.34;;;10.95;62.84
82353;BME280;71954;47.430;18.920;2024-02-23T01:44:25;98465.31;;;10.84;63.41
82353;BME280;71954;47.430;18.920;2024-02-23T01:46:51;98464.81;;;10.88;63.48
82353;BME280;71954;47.430;18.920;2024-02-23T01:49:20;98459.38;;;10.90;63.17
82353;BME280;71954;47.430;18.920;2024-02-23T01:51:47;98453.88;;;10.91;63.17
82353;BME280;71954;47.430;18.920;2024-02-23T01:54:15;98461.53;;;10.94;63.40
82353;BME280;71954;47.430;18.920;2024-02-23T01:56:42;98457.50;;;10.82;63.72
82353;BME280;71954;47.430;18.920;2024-02-23T01:59:10;98459.66;;;10.87;63.99
82353;BME280;71954;47.430;18.920;2024-02-23T02:01:37;98455.34;;;10.86;63.67
82353;BME280;71954;47.430;18.920;2024-02-23T02:04:03;98458.84;;;10.86;63.79
82353;BME280;71954;47.430;18.920;2024-02-23T02:06:30;98449.88;;;10.87;63.19
82353;BME280;71954;47.430;18.920;2024-02-23T02:08:57;98448.56;;;10.91;63.66
82353;BME280;71954;47.430;18.920;2024-02-23T02:11:24;98449.22;;;10.85;63.56
82353;BME280;71954;47.430;18.920;2024-02-23T02:13:50;98450.88;;;10.78;64.52
82353;BME280;71954;47.430;18.920;2024-02-23T02:16:17;98452.06;;;10.84;63.60
82353;BME280;71954;47.430;18.920;2024-02-23T02:18:44;98443.06;;;10.77;63.85
82353;BME280;71954;47.430;18.920;2024-02-23T02:21:12;98438.06;;;10.74;64.51
82353;BME280;71954;47.430;18.920;2024-02-23T02:23:39;98445.88;;;10.75;63.88
82353;BME280;71954;47.430;18.920;2024-02-23T02:26:06;98445.19;;;10.73;64.04
82353;BME280;71954;47.430;18.920;2024-02-23T02:28:33;98443.06;;;10.77;64.61
82353;BME280;71954;47.430;18.920;2024-02-23T02:31:00;98450.88;;;10.78;63.68
82353;BME280;71954;47.430;18.920;2024-02-23T02:33:27;98454.38;;;10.79;63.99
82353;BME280;71954;47.430;18.920;2024-02-23T02:35:54;98444.91;;;10.84;64.12
82353;BME280;71954;47.430;18.920;2024-02-23T02:38:20;98442.59;;;10.89;63.56
82353;BME280;71954;47.430;18.920;2024-02-23T02:40:47;98437.28;;;10.97;64.80
82353;BME280;71954;47.430;18.920;2024-02-23T02:43:14;98436.50;;;10.97;64.17
82353;BME280;71954;47.430;18.920;2024-02-23T02:45:40;98444.28;;;10.90;63.52
82353;BME280;71954;47.430;18.920;2024-02-23T02:48:07;98449.91;;;10.95;64.22
82353;BME280;71954;47.430;18.920;2024-02-23T02:50:34;98444.94;;;11.00;64.23
82353;BME280;71954;47.430;18.920;2024-02-23T02:53:02;98454.22;;;10.96;64.48
82353;BME280;71954;47.430;18.920;2024-02-23T02:55:28;98450.91;;;10.94;64.47
82353;BME280;71954;47.430;18.920;2024-02-23T02:57:55;98439.94;;;10.97;65.71
82353;BME280;71954;47.430;18.920;2024-02-23T03:00:22;98450.91;;;10.94;65.34
82353;BME280;71954;47.430;18.920;2024-02-23T03:02:48;98445.59;;;10.94;65.39
82353;BME280;71954;47.430;18.920;2024-02-23T03:05:15;98445.44;;;10.96;65.88
82353;BME280;71954;47.430;18.920;2024-02-23T03:07:42;98445.44;;;10.96;67.03
82353;BME280;71954;47.430;18.920;2024-02-23T03:10:08;98450.22;;;10.92;66.19
82353;BME280;71954;47.430;18.920;2024-02-23T03:12:35;98445.22;;;10.81;69.12
82353;BME280;71954;47.430;18.920;2024-02-23T03:15:02;98450.53;;;10.81;68.82
82353;BME280;71954;47.430;18.920;2024-02-23T03:17:29;98452.03;;;10.76;66.76
82353;BME280;71954;47.430;18.920;2024-02-23T03:19:56;98449.81;;;10.63;67.80
82353;BME280;71954;47.430;18.920;2024-02-23T03:22:24;98446.16;;;10.56;69.74
82353;BME280;71954;47.430;18.920;2024-02-23T03:24:51;98455.44;;;10.52;70.04
82353;BME280;71954;47.430;18.920;2024-02-23T03:27:17;98443.50;;;10.48;68.94
82353;BME280;71954;47.430;18.920;2024-02-23T03:29:44;98452.09;;;10.50;71.66
82353;BME280;71954;47.430;18.920;2024-02-23T03:32:11;98449.63;;;10.48;70.26
82353;BME280;71954;47.430;18.920;2024-02-23T03:34:37;98454.09;;;10.48;70.85
82353;BME280;71954;47.430;18.920;2024-02-23T03:37:04;98453.72;;;10.43;69.81
82353;BME280;71954;47.430;18.920;2024-02-23T03:39:30;98456.91;;;10.46;70.12
82353;BME280;71954;47.430;18.920;2024-02-23T03:41:59;98450.44;;;10.49;71.47
82353;BME280;71954;47.430;18.920;2024-02-23T03:44:25;98455.72;;;10.49;70.38
82353;BME280;71954;47.430;18.920;2024-02-23T03:46:52;98456.91;;;10.46;69.33
82353;BME280;71954;47.430;18.920;2024-02-23T03:49:19;98450.25;;;10.42;69.06
82353;BME280;71954;47.430;18.920;2024-02-23T03:51:46;98447.44;;;10.44;70.99
82353;BME280;71954;47.430;18.920;2024-02-23T03:54:12;98451.06;;;10.43;70.90
82353;BME280;71954;47.430;18.920;2024-02-23T03:56:40;98457.53;;;10.40;69.77
82353;BME280;71954;47.430;18.920;2024-02-23T03:59:10;98450.38;;;10.33;70.19
82353;BME280;71954;47.430;18.920;2024-02-23T04:01:38;98453.03;;;10.33;71.38
82353;BME280;71954;47.430;18.920;2024-02-23T04:04:06;98457.28;;;10.26;71.10
82353;BME280;71954;47.430;18.920;2024-02-23T04:06:33;98456.31;;;10.27;70.38
82353;BME280;71954;47.430;18.920;2024-02-23T04:09:00;98454.34;;;10.29;70.28
82353;BME280;71954;47.430;18.920;2024-02-23T04:11:27;98458.81;;;10.28;70.32
82353;BME280;71954;47.430;18.920;2024-02-23T04:13:54;98461.31;;;10.30;71.78
82353;BME280;71954;47.430;18.920;2024-02-23T04:16:24;98458.47;;;10.31;70.46
82353;BME280;71954;47.430;18.920;2024-02-23T04:18:54;98457.03;;;10.37;70.75
82353;BME280;71954;47.430;18.920;2024-02-23T04:21:21;98454.88;;;10.40;70.92
82353;BME280;71954;47.430;18.920;2024-02-23T04:23:48;98454.06;;;10.40;70.55
82353;BME280;71954;47.430;18.920;2024-02-23T04:26:14;98453.72;;;10.35;70.17
82353;BME280;71954;47.430;18.920;2024-02-23T04:28:42;98457.69;;;10.39;69.82
82353;BME280;71954;47.430;18.920;2024-02-23T04:31:08;98462.69;;;10.42;70.46
82353;BME280;71954;47.430;18.920;2024-02-23T04:33:36;98456.91;;;10.46;69.57
82353;BME280;71954;47.430;18.920;2024-02-23T04:36:04;98463.03;;;10.47;69.71
82353;BME280;71954;47.430;18.920;2024-02-23T04:38:31;98471.34;;;10.52;69.20
82353;BME280;71954;47.430;18.920;2024-02-23T04:40:58;98463.38;;;10.52;68.93
82353;BME280;71954;47.430;18.920;2024-02-23T04:43:25;98466.03;;;10.52;69.55
82353;BME280;71954;47.430;18.920;2024-02-23T04:45:51;98464.06;;;10.54;69.25
82353;BME280;71954;47.430;18.920;2024-02-23T04:48:18;98462.41;;;10.53;69.05
82353;BME280;71954;47.430;18.920;2024-02-23T04:50:45;98461.91;;;10.57;68.54
82353;BME280;71954;47.430;18.920;2024-02-23T04:53:11;98466.03;;;10.52;68.89
82353;BME280;71954;47.430;18.920;2024-02-23T04:55:38;98462.41;;;10.53;68.52
82353;BME280;71954;47.430;18.920;2024-02-23T04:58:06;98458.72;;;10.46;69.26
82353;BME280;71954;47.430;18.920;2024-02-23T05:00:33;98462.72;;;10.50;68.24
82353;BME280;71954;47.430;18.920;2024-02-23T05:03:00;98467.19;;;10.49;69.02
82353;BME280;71954;47.430;18.920;2024-02-23T05:05:30;98468.34;;;10.47;68.18
82353;BME280;71954;47.430;18.920;2024-02-23T05:07:57;98468.34;;;10.47;68.18
82353;BME280;71954;47.430;18.920;2024-02-23T05:10:23;98472.94;;;10.37;69.40
82353;BME280;71954;47.430;18.920;2024-02-23T05:12:50;98479.19;;;10.28;68.63
82353;BME280;71954;47.430;18.920;2024-02-23T05:15:17;98488.91;;;10.19;69.30
82353;BME280;71954;47.430;18.920;2024-02-23T05:17:43;98491.56;;;10.19;68.77
82353;BME280;71954;47.430;18.920;2024-02-23T05:20:11;98493.56;;;10.17;68.31
82353;BME280;71954;47.430;18.920;2024-02-23T05:22:40;98495.22;;;10.18;69.29
82353;BME280;71954;47.430;18.920;2024-02-23T05:25:07;98497.06;;;10.26;70.65
82353;BME280;71954;47.430;18.920;2024-02-23T05:27:34;98505.72;;;10.28;68.74
82353;BME280;71954;47.430;18.920;2024-02-23T05:30:01;98501.25;;;10.28;68.79
82353;BME280;71954;47.430;18.920;2024-02-23T05:32:28;98507.47;;;10.19;70.01
82353;BME280;71954;47.430;18.920;2024-02-23T05:34:55;98510.56;;;10.14;69.81
82353;BME280;71954;47.430;18.920;2024-02-23T05:37:24;98514.53;;;10.10;70.29
82353;BME280;71954;47.430;18.920;2024-02-23T05:39:51;98520.44;;;10.22;70.77
82353;BME280;71954;47.430;18.920;2024-02-23T05:42:18;98529.28;;;10.31;73.23
82353;BME280;71954;47.430;18.920;2024-02-23T05:44:44;98540.75;;;10.39;73.55
82353;BME280;71954;47.430;18.920;2024-02-23T05:47:11;98542.91;;;10.44;72.32
82353;BME280;71954;47.430;18.920;2024-02-23T05:49:40;98549.88;;;10.45;72.22
82353;BME280;71954;47.430;18.920;2024-02-23T05:52:07;98551.22;;;10.49;73.50
82353;BME280;71954;47.430;18.920;2024-02-23T05:54:34;98558.19;;;10.50;73.75
82353;BME280;71954;47.430;18.920;2024-02-23T05:57:00;98565.03;;;10.52;73.58
82353;BME280;71954;47.430;18.920;2024-02-23T05:59:27;98567.16;;;10.49;73.88
82353;BME280;71954;47.430;18.920;2024-02-23T06:01:54;98574.13;;;10.50;73.80
82353;BME280;71954;47.430;18.920;2024-02-23T06:04:24;98573.28;;;10.49;74.29
82353;BME280;71954;47.430;18.920;2024-02-23T06:06:51;98578.44;;;10.51;74.23
82353;BME280;71954;47.430;18.920;2024-02-23T06:09:18;98586.09;;;10.54;74.11
82353;BME280;71954;47.430;18.920;2024-02-23T06:11:46;98588.53;;;10.47;73.96
82353;BME280;71954;47.430;18.920;2024-02-23T06:14:13;98581.41;;;10.48;73.14
82353;BME280;71954;47.430;18.920;2024-02-23T06:16:40;98584.06;;;10.48;74.17
82353;BME280;71954;47.430;18.920;2024-02-23T06:19:07;98592.34;;;10.45;74.62
82353;BME280;71954;47.430;18.920;2024-02-23T06:21:34;98599.31;;;10.46;74.02
82353;BME280;71954;47.430;18.920;2024-02-23T06:24:00;98600.66;;;10.50;74.10
82353;BME280;71954;47.430;18.920;2024-02-23T06:26:28;98605.66;;;10.53;74.32
82353;BME280;71954;47.430;18.920;2024-02-23T06:28:55;98598.34;;;10.55;74.57
82353;BME280;71954;47.430;18.920;2024-02-23T06:31:21;98606.31;;;10.55;74.87
82353;BME280;71954;47.430;18.920;2024-02-23T06:33:48;98605.31;;;10.56;74.64
82353;BME280;71954;47.430;18.920;2024-02-23T06:36:18;98599.72;;;10.59;74.36
82353;BME280;71954;47.430;18.920;2024-02-23T06:38:44;98603.72;;;10.63;73.80
82353;BME280;71954;47.430;18.920;2024-02-23T06:41:11;98609.84;;;10.64;74.13
82353;BME280;71954;47.430;18.920;2024-02-23T06:43:38;98603.72;;;10.63;73.63
82353;BME280;71954;47.430;18.920;2024-02-23T06:46:08;98608.19;;;10.63;72.66
82353;BME280;71954;47.430;18.920;2024-02-23T06:48:36;98610.00;;;10.62;74.31
82353;BME280;71954;47.430;18.920;2024-02-23T06:51:05;98622.28;;;10.63;74.74
82353;BME280;71954;47.430;18.920;2024-02-23T06:53:36;98622.13;;;10.65;74.28
82353;BME280;71954;47.430;18.920;2024-02-23T06:56:04;98621.31;;;10.64;73.40
82353;BME280;71954;47.430;18.920;2024-02-23T06:58:31;98624.78;;;10.65;74.68
82353;BME280;71954;47.430;18.920;2024-02-23T07:00:58;98619.34;;;10.66;74.67
82353;BME280;71954;47.430;18.920;2024-02-23T07:03:24;98626.28;;;10.67;74.11
82353;BME280;71954;47.430;18.920;2024-02-23T07:05:51;98618.31;;;10.67;74.23
82353;BME280;71954;47.430;18.920;2024-02-23T07:08:18;98621.50;;;10.71;74.05
82353;BME280;71954;47.430;18.920;2024-02-23T07:10:45;98623.84;;;10.74;74.14
82353;BME280;71954;47.430;18.920;2024-02-23T07:13:12;98627.84;;;10.78;73.81
82353;BME280;71954;47.430;18.920;2024-02-23T07:15:39;98624.56;;;10.84;74.29
82353;BME280;71954;47.430;18.920;2024-02-23T07:18:05;98623.41;;;10.86;73.88
82353;BME280;71954;47.430;18.920;2024-02-23T07:20:38;98631.00;;;10.81;74.17
82353;BME280;71954;47.430;18.920;2024-02-23T07:23:05;98628.34;;;10.81;73.44
82353;BME280;71954;47.430;18.920;2024-02-23T07:25:32;98635.13;;;10.76;73.87
82353;BME280;71954;47.430;18.920;2024-02-23T07:27:59;98643.38;;;10.65;74.86
82353;BME280;71954;47.430;18.920;2024-02-23T07:30:25;98637.91;;;10.66;73.85
82353;BME280;71954;47.430;18.920;2024-02-23T07:32:52;98642.78;;;10.53;74.83
82353;BME280;71954;47.430;18.920;2024-02-23T07:35:19;98645.75;;;10.50;74.68
82353;BME280;71954;47.430;18.920;2024-02-23T07:37:46;98644.03;;;10.41;75.47
82353;BME280;71954;47.430;18.920;2024-02-23T07:40:13;98640.94;;;10.28;76.42
82353;BME280;71954;47.430;18.920;2024-02-23T07:42:44;98652.25;;;10.30;76.58
82353;BME280;71954;47.430;18.920;2024-02-23T07:45:12;98652.16;;;10.22;76.33
82353;BME280;71954;47.430;18.920;2024-02-23T07:47:38;98657.63;;;10.20;76.31
82353;BME280;71954;47.430;18.920;2024-02-23T07:50:05;98660.72;;;10.15;76.71
82353;BME280;71954;47.430;18.920;2024-02-23T07:52:32;98655.41;;;10.15;76.96
82353;BME280;71954;47.430;18.920;2024-02-23T07:54:59;98653.22;;;10.11;77.33
82353;BME280;71954;47.430;18.920;2024-02-23T07:57:29;98659.03;;;10.14;77.14
82353;BME280;71954;47.430;18.920;2024-02-23T07:59:58;98663.00;;;10.10;77.54
82353;BME280;71954;47.430;18.920;2024-02-23T08:02:24;98666.34;;;10.12;77.03
82353;BME280;71954;47.430;18.920;2024-02-23T08:04:51;98660.47;;;10.09;77.31
82353;BME280;71954;47.430;18.920;2024-02-23T08:07:19;98658.38;;;10.12;77.85
82353;BME280;71954;47.430;18.920;2024-02-23T08:09:48;98665.28;;;10.05;77.49
82353;BME280;71954;47.430;18.920;2024-02-23T08:12:14;98661.94;;;10.03;78.02
82353;BME280;71954;47.430;18.920;2024-02-23T08:14:42;98671.91;;;10.09;77.80
82353;BME280;71954;47.430;18.920;2024-02-23T08:17:10;98671.84;;;10.19;77.47
82353;BME280;71954;47.430;18.920;2024-02-23T08:19:37;98668.78;;;10.24;77.55
82353;BME280;71954;47.430;18.920;2024-02-23T08:22:04;98678.91;;;10.28;77.22
82353;BME280;71954;47.430;18.920;2024-02-23T08:24:30;98674.19;;;10.40;77.02
82353;BME280;71954;47.430;18.920;2024-02-23T08:26:57;98674.91;;;10.50;76.98
82353;BME280;71954;47.430;18.920;2024-02-23T08:29:25;98679.59;;;10.56;77.04
82353;BME280;71954;47.430;18.920;2024-02-23T08:31:52;98678.69;;;10.65;76.94
82353;BME280;71954;47.430;18.920;2024-02-23T08:34:19;98682.22;;;10.74;76.44
82353;BME280;71954;47.430;18.920;2024-02-23T08:36:46;98688.72;;;10.79;75.74
82353;BME280;71954;47.430;18.920;2024-02-23T08:39:12;98690.75;;;10.85;75.57
82353;BME280;71954;47.430;18.920;2024-02-23T08:41:39;98682.78;;;10.85;75.09
82353;BME280;71954;47.430;18.920;2024-02-23T08:44:06;98690.13;;;10.91;75.01
82353;BME280;71954;47.430;18.920;2024-02-23T08:46:32;98689.72;;;10.78;75.64
82353;BME280;71954;47.430;18.920;2024-02-23T08:48:59;98688.94;;;10.60;75.88
82353;BME280;71954;47.430;18.920;2024-02-23T08:51:26;98697.63;;;10.70;75.50
82353;BME280;71954;47.430;18.920;2024-02-23T08:53:52;98695.22;;;10.59;76.49
82353;BME280;71954;47.430;18.920;2024-02-23T08:56:20;98705.22;;;10.65;75.63
82353;BME280;71954;47.430;18.920;2024-02-23T08:58:47;98700.00;;;10.55;76.23
82353;BME280;71954;47.430;18.920;2024-02-23T09:01:14;98706.38;;;10.45;76.86
82353;BME280;71954;47.430;18.920;2024-02-23T09:03:40;98707.75;;;10.31;78.16
82353;BME280;71954;47.430;18.920;2024-02-23T09:06:07;98710.22;;;10.25;78.21
82353;BME280;71954;47.430;18.920;2024-02-23T09:08:34;98713.53;;;10.27;78.14
82353;BME280;71954;47.430;18.920;2024-02-23T09:11:01;98708.53;;;10.24;78.28
82353;BME280;71954;47.430;18.920;2024-02-23T09:13:28;98714.06;;;10.30;78.39
82353;BME280;71954;47.430;18.920;2024-02-23T09:15:56;98712.78;;;10.34;77.91
82353;BME280;71954;47.430;18.920;2024-02-23T09:18:23;98717.09;;;10.35;77.42
82353;BME280;71954;47.430;18.920;2024-02-23T09:20:50;98723.66;;;10.31;77.82
82353;BME280;71954;47.430;18.920;2024-02-23T09:23:17;98718.53;;;10.30;77.72
82353;BME280;71954;47.430;18.920;2024-02-23T09:25:44;98720.72;;;10.34;78.45
82353;BME280;71954;47.430;18.920;2024-02-23T09:28:11;98711.66;;;10.37;77.86
82353;BME280;71954;47.430;18.920;2024-02-23T09:30:38;98715.03;;;10.47;78.04
82353;BME280;71954;47.430;18.920;2024-02-23T09:33:05;98717.59;;;10.56;79.17
82353;BME280;71954;47.430;18.920;2024-02-23T09:35:32;98724.78;;;10.64;78.03
82353;BME280;71954;47.430;18.920;2024-02-23T09:37:58;98720.81;;;10.68;77.07
82353;BME280;71954;47.430;18.920;2024-02-23T09:40:25;98716.91;;;10.72;78.00
82353;BME280;71954;47.430;18.920;2024-02-23T09:42:57;98719.38;;;10.74;77.64
82353;BME280;71954;47.430;18.920;2024-02-23T09:45:25;98721.59;;;10.78;77.92
82353;BME280;71954;47.430;18.920;2024-02-23T09:47:57;98723.53;;;10.76;77.38
82353;BME280;71954;47.430;18.920;2024-02-23T09:50:24;98724.75;;;10.82;77.34
82353;BME280;71954;47.430;18.920;2024-02-23T09:52:52;98727.63;;;10.88;77.16
82353;BME280;71954;47.430;18.920;2024-02-23T09:55:21;98731.31;;;10.95;78.21
82353;BME280;71954;47.430;18.920;2024-02-23T09:57:49;98728.69;;;11.03;78.28
82353;BME280;71954;47.430;18.920;2024-02-23T10:00:18;98726.78;;;11.14;77.25
82353;BME280;71954;47.430;18.920;2024-02-23T10:02:45;98724.00;;;11.23;75.94
82353;BME280;71954;47.430;18.920;2024-02-23T10:05:12;98724.53;;;11.35;75.58
82353;BME280;71954;47.430;18.920;2024-02-23T10:07:40;98723.44;;;11.46;75.64
82353;BME280;71954;47.430;18.920;2024-02-23T10:10:08;98725.13;;;11.55;75.34
82353;BME280;71954;47.430;18.920;2024-02-23T10:12:35;98732.31;;;11.62;74.78
82353;BME280;71954;47.430;18.920;2024-02-23T10:15:03;98728.69;;;11.71;75.29
82353;BME280;71954;47.430;18.920;2024-02-23T10:17:31;98734.06;;;11.79;74.52
82353;BME280;71954;47.430;18.920;2024-02-23T10:20:02;98727.56;;;11.82;74.81
82353;BME280;71954;47.430;18.920;2024-02-23T10:22:31;98733.22;;;11.79;75.49
82353;BME280;71954;47.430;18.920;2024-02-23T10:24:58;98731.06;;;11.82;75.59
82353;BME280;71954;47.430;18.920;2024-02-23T10:27:25;98734.06;;;11.88;76.03
82353;BME280;71954;47.430;18.920;2024-02-23T10:29:52;98735.59;;;11.90;75.86
82353;BME280;71954;47.430;18.920;2024-02-23T10:32:23;98733.59;;;11.92;75.80
82353;BME280;71954;47.430;18.920;2024-02-23T10:34:51;98737.44;;;11.98;75.42
82353;BME280;71954;47.430;18.920;2024-02-23T10:37:20;98732.13;;;11.98;75.46
82353;BME280;71954;47.430;18.920;2024-02-23T10:39:50;98734.94;;;11.96;74.46
82353;BME280;71954;47.430;18.920;2024-02-23T10:42:20;98730.44;;;11.97;73.76
82353;BME280;71954;47.430;18.920;2024-02-23T10:44:51;98728.78;;;11.96;74.12
82353;BME280;71954;47.430;18.920;2024-02-23T10:47:20;98728.47;;;11.99;73.06
82353;BME280;71954;47.430;18.920;2024-02-23T10:49:48;98737.09;;;12.01;72.12
82353;BME280;71954;47.430;18.920;2024-02-23T10:52:15;98731.47;;;12.04;72.53
82353;BME280;71954;47.430;18.920;2024-02-23T10:54:46;98729.81;;;12.03;72.39
82353;BME280;71954;47.430;18.920;2024-02-23T10:57:13;98734.44;;;12.01;72.17
82353;BME280;71954;47.430;18.920;2024-02-23T10:59:46;98731.78;;;12.01;72.42
82353;BME280;71954;47.430;18.920;2024-02-23T11:02:14;98726.75;;;11.81;72.73
82353;BME280;71954;47.430;18.920;2024-02-23T11:04:48;98728.34;;;11.66;72.11
82353;BME280;71954;47.430;18.920;2024-02-23T11:07:19;98727.00;;;11.70;72.64
82353;BME280;71954;47.430;18.920;2024-02-23T11:09:52;98725.41;;;11.77;72.86
82353;BME280;71954;47.430;18.920;2024-02-23T11:12:26;98723.44;;;11.79;73.50
82353;BME280;71954;47.430;18.920;2024-02-23T11:14:57;98724.75;;;11.83;72.57
82353;BME280;71954;47.430;18.920;2024-02-23T11:17:29;98728.91;;;11.78;72.23
82353;BME280;71954;47.430;18.920;2024-02-23T11:20:03;98727.41;;;11.83;72.24
82353;BME280;71954;47.430;18.920;2024-02-23T11:22:33;98727.75;;;11.89;71.45
82353;BME280;71954;47.430;18.920;2024-02-23T11:25:06;98729.78;;;11.95;71.95
82353;BME280;71954;47.430;18.920;2024-02-23T11:27:36;98732.78;;;12.00;70.91
82353;BME280;71954;47.430;18.920;2024-02-23T11:32:40;98728.50;;;12.15;71.19
82353;BME280;71954;47.430;18.920;2024-02-23T11:35:10;98726.50;;;12.17;69.68
82353;BME280;71954;47.430;18.920;2024-02-23T11:37:45;98719.03;;;12.20;70.09
82353;BME280;71954;47.430;18.920;2024-02-23T11:40:13;98735.50;;;12.32;69.81
82353;BME280;71954;47.430;18.920;2024-02-23T11:42:41;98726.53;;;12.41;71.78
82353;BME280;71954;47.430;18.920;2024-02-23T11:45:10;98717.91;;;12.47;71.72
82353;BME280;71954;47.430;18.920;2024-02-23T11:47:38;98721.38;;;12.56;73.49
82353;BME280;71954;47.430;18.920;2024-02-23T11:50:09;98721.88;;;12.59;71.68
82353;BME280;71954;47.430;18.920;2024-02-23T11:52:40;98710.56;;;12.66;69.66
82353;BME280;71954;47.430;18.920;2024-02-23T11:55:07;98714.88;;;12.67;68.15
82353;BME280;71954;47.430;18.920;2024-02-23T11:57:36;98703.22;;;12.68;67.71
82353;BME280;71954;47.430;18.920;2024-02-23T12:00:13;98718.88;;;12.54;68.64
82353;BME280;71954;47.430;18.920;2024-02-23T12:02:40;98704.91;;;12.44;68.04
82353;BME280;71954;47.430;18.920;2024-02-23T12:05:07;98716.19;;;12.30;67.84
82353;BME280;71954;47.430;18.920;2024-02-23T12:07:34;98709.25;;;12.29;68.59
82353;BME280;71954;47.430;18.920;2024-02-23T12:10:02;98700.88;;;12.08;69.17
82353;BME280;71954;47.430;18.920;2024-02-23T12:12:30;98705.22;;;12.17;68.81
82353;BME280;71954;47.430;18.920;2024-02-23T12:14:58;98696.41;;;12.24;68.14
82353;BME280;71954;47.430;18.920;2024-02-23T12:17:25;98698.25;;;12.32;68.87
82353;BME280;71954;47.430;18.920;2024-02-23T12:19:59;98698.59;;;12.29;68.55
82353;BME280;71954;47.430;18.920;2024-02-23T12:22:26;98697.56;;;12.30;68.29
82353;BME280;71954;47.430;18.920;2024-02-23T12:24:53;98693.94;;;12.23;67.90
82353;BME280;71954;47.430;18.920;2024-02-23T12:27:19;98689.75;;;12.04;67.72
82353;BME280;71954;47.430;18.920;2024-02-23T12:29:54;98701.88;;;11.99;67.92
82353;BME280;71954;47.430;18.920;2024-02-23T12:32:21;98698.06;;;12.09;68.15
82353;BME280;71954;47.430;18.920;2024-02-23T12:34:48;98697.91;;;12.19;69.70
82353;BME280;71954;47.430;18.920;2024-02-23T12:37:16;98705.56;;;12.30;72.65
82353;BME280;71954;47.430;18.920;2024-02-23T12:39:46;98708.22;;;12.38;73.34
82353;BME280;71954;47.430;18.920;2024-02-23T12:42:13;98704.75;;;12.46;73.43
82353;BME280;71954;47.430;18.920;2024-02-23T12:44:40;98709.25;;;12.53;73.18
82353;BME280;71954;47.430;18.920;2024-02-23T12:47:06;98701.75;;;12.57;73.55
82353;BME280;71954;47.430;18.920;2024-02-23T12:49:33;98698.56;;;12.61;73.53
82353;BME280;71954;47.430;18.920;2024-02-23T12:52:01;98711.38;;;12.66;73.59
82353;BME280;71954;47.430;18.920;2024-02-23T12:54:27;98715.53;;;12.69;72.63